createdAt,value
2018-05-12T00:00:39.707Z,0.00
2018-05-12T00:01:39.919Z,0.00
2018-05-12T00:02:40.138Z,0.00
2018-05-12T00:03:42.085Z,0.00
2018-05-12T00:04:40.546Z,0.00
2018-05-12T00:05:40.768Z,0.00
2018-05-12T00:06:40.977Z,0.00
2018-05-12T00:07:41.185Z,0.00
2018-05-12T00:08:41.402Z,0.00
2018-05-12T00:09:43.593Z,0.00
2018-05-12T00:10:41.811Z,0.00
2018-05-12T00:11:42.023Z,0.00
2018-05-12T00:12:42.234Z,0.00
2018-05-12T00:13:42.453Z,0.00
2018-05-12T00:14:42.670Z,0.00
2018-05-12T00:15:42.887Z,0.00
2018-05-12T00:16:43.103Z,0.00
2018-05-12T00:17:43.307Z,0.00
2018-05-12T00:18:43.536Z,0.00
2018-05-12T00:19:43.753Z,0.00
2018-05-12T00:20:43.978Z,0.00
2018-05-12T00:21:44.199Z,0.00
2018-05-12T00:22:44.409Z,0.00
2018-05-12T00:23:44.640Z,0.00
2018-05-12T00:24:44.852Z,0.00
2018-05-12T00:25:45.107Z,0.00
2018-05-12T00:26:47.093Z,0.00
2018-05-12T00:27:47.094Z,0.00
2018-05-12T00:28:45.581Z,0.00
2018-05-12T00:29:45.791Z,0.00
2018-05-12T00:30:46.010Z,0.00
2018-05-12T00:31:46.223Z,0.00
2018-05-12T00:32:48.084Z,0.00
2018-05-12T00:33:46.678Z,0.00
2018-05-12T00:34:46.888Z,0.00
2018-05-12T00:35:47.109Z,0.00
2018-05-12T00:36:47.309Z,0.00
2018-05-12T00:37:47.533Z,0.00
2018-05-12T00:38:47.757Z,0.00
2018-05-12T00:39:47.980Z,0.00
2018-05-12T00:40:48.188Z,0.00
2018-05-12T00:41:48.414Z,0.00
2018-05-12T00:42:48.626Z,0.00
2018-05-12T00:43:48.848Z,0.00
2018-05-12T00:44:49.061Z,0.00
2018-05-12T00:45:49.274Z,0.00
2018-05-12T00:46:49.489Z,0.00
2018-05-12T00:47:51.605Z,0.00
2018-05-12T00:48:49.944Z,0.00
2018-05-12T00:49:52.101Z,0.00
2018-05-12T00:50:50.306Z,0.00
2018-05-12T00:51:50.512Z,0.00
2018-05-12T00:52:50.730Z,0.00
2018-05-12T00:53:50.960Z,0.00
2018-05-12T00:54:51.179Z,0.00
2018-05-12T00:55:51.398Z,0.00
2018-05-12T00:56:51.614Z,0.00
2018-05-12T00:57:51.832Z,0.00
2018-05-12T00:58:52.046Z,0.00
2018-05-12T00:59:54.097Z,0.00
2018-05-12T01:00:52.439Z,0.00
2018-05-12T01:01:52.663Z,0.00
2018-05-12T01:02:52.888Z,0.00
2018-05-12T01:03:53.106Z,0.00
2018-05-12T01:04:53.311Z,0.00
2018-05-12T01:05:53.527Z,0.00
2018-05-12T01:06:56.593Z,0.00
2018-05-12T01:07:53.933Z,0.00
2018-05-12T01:08:54.155Z,0.00
2018-05-12T01:09:54.376Z,0.00
2018-05-12T01:10:58.498Z,0.00
2018-05-12T01:11:54.814Z,0.00
2018-05-12T01:12:55.030Z,0.00
2018-05-12T01:13:55.251Z,0.00
2018-05-12T01:14:57.093Z,0.00
2018-05-12T01:15:55.676Z,0.00
2018-05-12T01:16:55.902Z,0.00
2018-05-12T01:17:56.113Z,0.00
2018-05-12T01:18:56.326Z,0.00
2018-05-12T01:19:56.545Z,0.00
2018-05-12T01:20:56.753Z,0.00
2018-05-12T01:21:58.597Z,0.00
2018-05-12T01:22:57.195Z,0.00
2018-05-12T01:23:57.414Z,0.00
2018-05-12T01:24:57.624Z,0.00
2018-05-12T01:25:57.851Z,0.00
2018-05-12T01:26:58.061Z,0.00
2018-05-12T01:27:58.285Z,0.00
2018-05-12T01:28:58.513Z,0.00
2018-05-12T01:29:58.719Z,0.00
2018-05-12T01:30:58.923Z,0.00
2018-05-12T01:31:59.144Z,0.00
2018-05-12T01:32:59.370Z,0.00
2018-05-12T01:33:59.581Z,0.00
2018-05-12T01:34:59.800Z,0.00
2018-05-12T01:36:00.029Z,0.00
2018-05-12T01:37:02.089Z,0.00
2018-05-12T01:38:00.433Z,0.00
2018-05-12T01:39:00.644Z,0.00
2018-05-12T01:40:00.852Z,0.00
2018-05-12T01:41:01.070Z,0.00
2018-05-12T01:42:05.090Z,0.00
2018-05-12T01:43:03.096Z,0.00
2018-05-12T01:44:01.577Z,0.00
2018-05-12T01:45:01.781Z,0.00
2018-05-12T01:46:02.029Z,0.00
2018-05-12T01:47:02.218Z,0.00
2018-05-12T01:48:02.426Z,0.00
2018-05-12T01:49:02.648Z,0.00
2018-05-12T01:50:02.858Z,0.00
2018-05-12T01:51:03.087Z,0.00
2018-05-12T01:52:03.316Z,0.00
2018-05-12T01:53:05.098Z,0.00
2018-05-12T01:54:03.703Z,0.00
2018-05-12T01:55:03.923Z,0.00
2018-05-12T01:56:04.139Z,0.00
2018-05-12T01:57:04.354Z,0.00
2018-05-12T01:58:07.096Z,0.00
2018-05-12T01:59:04.811Z,0.00
2018-05-12T02:00:06.590Z,0.00
2018-05-12T02:01:05.181Z,0.00
2018-05-12T02:02:05.400Z,0.00
2018-05-12T02:03:05.614Z,0.00
2018-05-12T02:04:05.838Z,0.00
2018-05-12T02:05:07.610Z,0.00
2018-05-12T02:06:06.201Z,0.00
2018-05-12T02:07:08.097Z,0.00
2018-05-12T02:08:06.578Z,0.00
2018-05-12T02:09:10.591Z,0.00
2018-05-12T02:10:06.929Z,0.00
2018-05-12T02:11:07.170Z,0.00
2018-05-12T02:12:07.351Z,0.00
2018-05-12T02:13:09.098Z,0.00
2018-05-12T02:14:07.682Z,0.00
2018-05-12T02:15:07.900Z,0.00
2018-05-12T02:16:08.135Z,0.00
2018-05-12T02:17:10.093Z,0.00
2018-05-12T02:18:08.577Z,0.00
2018-05-12T02:19:12.593Z,0.00
2018-05-12T02:20:08.925Z,0.00
2018-05-12T02:21:11.093Z,0.00
2018-05-12T02:22:09.336Z,0.00
2018-05-12T02:23:09.514Z,0.00
2018-05-12T02:24:09.766Z,0.00
2018-05-12T02:25:09.999Z,0.00
2018-05-12T02:26:13.596Z,0.00
2018-05-12T02:27:10.298Z,0.00
2018-05-12T02:28:10.521Z,0.00
2018-05-12T02:29:12.612Z,0.00
2018-05-12T02:30:10.939Z,0.00
2018-05-12T02:31:11.168Z,0.00
2018-05-12T02:32:11.381Z,0.00
2018-05-12T02:33:11.587Z,0.00
2018-05-12T02:34:11.815Z,0.00
2018-05-12T02:35:13.601Z,0.00
2018-05-12T02:36:12.193Z,0.00
2018-05-12T02:37:14.100Z,0.00
2018-05-12T02:38:12.564Z,0.00
2018-05-12T02:39:14.596Z,0.00
2018-05-12T02:40:12.929Z,0.00
2018-05-12T02:41:13.140Z,0.00
2018-05-12T02:42:13.364Z,0.00
2018-05-12T02:43:13.571Z,0.00
2018-05-12T02:44:13.779Z,0.00
2018-05-12T02:45:14.006Z,0.00
2018-05-12T02:46:16.099Z,0.00
2018-05-12T02:47:16.091Z,0.00
2018-05-12T02:48:14.564Z,0.00
2018-05-12T02:49:14.784Z,0.00
2018-05-12T02:50:15.007Z,0.00
2018-05-12T02:51:17.109Z,0.00
2018-05-12T02:52:15.443Z,0.00
2018-05-12T02:53:15.660Z,0.00
2018-05-12T02:54:15.916Z,0.00
2018-05-12T02:55:17.592Z,0.00
2018-05-12T02:56:16.307Z,0.00
2018-05-12T02:57:16.531Z,0.00
2018-05-12T02:58:16.755Z,0.00
2018-05-12T02:59:16.954Z,0.00
2018-05-12T03:00:17.192Z,0.00
2018-05-12T03:01:17.400Z,4.00
2018-05-12T03:02:17.604Z,4.00
2018-05-12T03:03:17.819Z,0.00
2018-05-12T03:04:18.044Z,0.00
2018-05-12T03:05:18.246Z,4.00
2018-05-12T03:06:18.472Z,4.00
2018-05-12T03:07:18.672Z,4.00
2018-05-12T03:08:18.902Z,4.00
2018-05-12T03:09:21.096Z,8.00
2018-05-12T03:10:19.305Z,8.00
2018-05-12T03:11:19.525Z,8.00
2018-05-12T03:12:19.732Z,8.00
2018-05-12T03:13:19.940Z,12.00
2018-05-12T03:14:23.107Z,16.00
2018-05-12T03:15:22.099Z,16.00
2018-05-12T03:16:20.447Z,16.00
2018-05-12T03:17:20.675Z,20.00
2018-05-12T03:18:20.908Z,24.00
2018-05-12T03:19:21.117Z,28.00
2018-05-12T03:20:21.327Z,32.00
2018-05-12T03:21:23.105Z,36.00
2018-05-12T03:22:21.695Z,40.00
2018-05-12T03:23:21.901Z,48.00
2018-05-12T03:24:22.167Z,52.00
2018-05-12T03:25:22.331Z,60.00
2018-05-12T03:26:22.582Z,64.00
2018-05-12T03:27:24.599Z,76.00
2018-05-12T03:28:24.602Z,88.00
2018-05-12T03:29:23.073Z,92.00
2018-05-12T03:30:23.291Z,108.00
2018-05-12T03:31:25.100Z,120.00
2018-05-12T03:32:23.701Z,128.00
2018-05-12T03:33:23.909Z,144.00
2018-05-12T03:34:24.119Z,160.00
2018-05-12T03:35:24.345Z,172.00
2018-05-12T03:36:24.593Z,192.00
2018-05-12T03:37:24.773Z,212.00
2018-05-12T03:38:24.989Z,228.00
2018-05-12T03:39:25.204Z,252.00
2018-05-12T03:40:25.486Z,272.00
2018-05-12T03:41:25.574Z,292.00
2018-05-12T03:42:25.787Z,316.00
2018-05-12T03:43:25.997Z,344.00
2018-05-12T03:44:26.212Z,372.00
2018-05-12T03:45:26.434Z,400.00
2018-05-12T03:46:28.600Z,424.00
2018-05-12T03:47:26.816Z,460.00
2018-05-12T03:48:27.032Z,488.00
2018-05-12T03:49:29.684Z,520.00
2018-05-12T03:50:27.419Z,552.00
2018-05-12T03:51:27.631Z,588.00
2018-05-12T03:52:27.833Z,624.00
2018-05-12T03:53:28.047Z,656.00
2018-05-12T03:54:28.256Z,692.00
2018-05-12T03:55:28.481Z,724.00
2018-05-12T03:56:28.709Z,756.00
2018-05-12T03:57:28.924Z,792.00
2018-05-12T03:58:33.095Z,824.00
2018-05-12T03:59:29.322Z,860.00
2018-05-12T04:00:29.525Z,896.00
2018-05-12T04:01:29.745Z,936.00
2018-05-12T04:02:29.948Z,976.00
2018-05-12T04:03:30.151Z,1012.00
2018-05-12T04:04:32.097Z,1052.00
2018-05-12T04:05:30.567Z,1092.00
2018-05-12T04:06:30.792Z,1132.00
2018-05-12T04:07:31.050Z,1176.00
2018-05-12T04:08:31.224Z,1220.00
2018-05-12T04:09:31.453Z,1264.00
2018-05-12T04:10:31.641Z,1312.00
2018-05-12T04:11:31.857Z,1356.00
2018-05-12T04:12:32.061Z,1404.00
2018-05-12T04:13:32.269Z,1452.00
2018-05-12T04:14:32.532Z,1504.00
2018-05-12T04:15:32.714Z,1556.00
2018-05-12T04:16:32.961Z,1608.00
2018-05-12T04:17:33.175Z,1664.00
2018-05-12T04:18:33.391Z,1728.00
2018-05-12T04:19:33.604Z,1784.00
2018-05-12T04:20:33.817Z,1852.00
2018-05-12T04:21:34.024Z,1920.00
2018-05-12T04:22:36.104Z,1988.00
2018-05-12T04:23:34.444Z,2060.00
2018-05-12T04:24:34.668Z,2128.00
2018-05-12T04:25:34.884Z,2192.00
2018-05-12T04:26:35.102Z,2256.00
2018-05-12T04:27:35.316Z,2324.00
2018-05-12T04:28:37.099Z,2396.00
2018-05-12T04:29:35.679Z,2468.00
2018-05-12T04:30:35.909Z,2532.00
2018-05-12T04:31:36.126Z,2604.00
2018-05-12T04:32:36.394Z,2672.00
2018-05-12T04:33:36.482Z,2740.00
2018-05-12T04:34:36.762Z,2808.00
2018-05-12T04:35:36.915Z,2872.00
2018-05-12T04:36:37.128Z,2944.00
2018-05-12T04:37:37.350Z,3012.00
2018-05-12T04:38:37.581Z,3080.00
2018-05-12T04:39:37.803Z,3152.00
2018-05-12T04:40:41.601Z,3224.00
2018-05-12T04:41:38.177Z,3296.00
2018-05-12T04:42:38.398Z,3384.00
2018-05-12T04:43:38.626Z,3484.00
2018-05-12T04:44:38.839Z,3588.00
2018-05-12T04:45:39.092Z,3676.00
2018-05-12T04:46:39.206Z,3752.00
2018-05-12T04:47:39.421Z,3820.00
2018-05-12T04:48:39.638Z,3888.00
2018-05-12T04:49:39.851Z,3972.00
2018-05-12T04:50:40.062Z,4048.00
2018-05-12T04:51:40.278Z,4128.00
2018-05-12T04:52:40.484Z,4216.00
2018-05-12T04:53:40.711Z,4312.00
2018-05-12T04:54:44.613Z,4376.00
2018-05-12T04:55:41.071Z,4452.00
2018-05-12T04:56:41.296Z,4544.00
2018-05-12T04:57:41.512Z,4612.00
2018-05-12T04:58:43.602Z,4704.00
2018-05-12T04:59:41.937Z,4848.00
2018-05-12T05:00:42.141Z,4984.00
2018-05-12T05:01:42.394Z,4972.00
2018-05-12T05:02:42.578Z,4972.00
2018-05-12T05:03:42.798Z,5072.00
2018-05-12T05:04:44.604Z,5288.00
2018-05-12T05:05:43.186Z,5504.00
2018-05-12T05:06:43.407Z,5644.00
2018-05-12T05:07:43.628Z,5712.00
2018-05-12T05:08:45.630Z,5652.00
2018-05-12T05:09:44.096Z,5468.00
2018-05-12T05:10:44.318Z,5504.00
2018-05-12T05:11:44.523Z,5620.00
2018-05-12T05:12:44.770Z,5712.00
2018-05-12T05:13:44.972Z,5856.00
2018-05-12T05:14:47.098Z,5976.00
2018-05-12T05:15:45.313Z,6220.00
2018-05-12T05:16:45.533Z,6536.00
2018-05-12T05:17:45.756Z,6932.00
2018-05-12T05:18:45.952Z,7072.00
2018-05-12T05:19:46.186Z,7048.00
2018-05-12T05:20:46.407Z,7284.00
2018-05-12T05:21:46.625Z,7492.00
2018-05-12T05:22:46.845Z,7396.00
2018-05-12T05:23:47.067Z,7144.00
2018-05-12T05:24:47.293Z,7584.00
2018-05-12T05:25:47.523Z,8080.00
2018-05-12T05:26:47.723Z,8360.00
2018-05-12T05:27:47.946Z,8472.00
2018-05-12T05:28:48.162Z,8568.00
2018-05-12T05:29:48.373Z,8804.00
2018-05-12T05:30:48.596Z,9056.00
2018-05-12T05:31:50.604Z,9156.00
2018-05-12T05:32:48.942Z,9284.00
2018-05-12T05:33:49.163Z,9580.00
2018-05-12T05:34:49.380Z,9980.00
2018-05-12T05:35:49.602Z,10344.00
2018-05-12T05:36:51.608Z,10512.00
2018-05-12T05:37:49.949Z,10532.00
2018-05-12T05:38:50.168Z,10492.00
2018-05-12T05:39:50.382Z,10592.00
2018-05-12T05:40:50.593Z,11000.00
2018-05-12T05:41:50.820Z,11652.00
2018-05-12T05:42:51.035Z,11896.00
2018-05-12T05:43:51.278Z,11764.00
2018-05-12T05:44:51.486Z,11832.00
2018-05-12T05:45:51.697Z,12180.00
2018-05-12T05:46:51.949Z,12416.00
2018-05-12T05:47:52.153Z,12288.00
2018-05-12T05:48:54.115Z,12228.00
2018-05-12T05:49:52.592Z,12512.00
2018-05-12T05:50:52.806Z,13172.00
2018-05-12T05:51:53.023Z,13788.00
2018-05-12T05:52:53.239Z,13904.00
2018-05-12T05:53:53.457Z,13744.00
2018-05-12T05:54:53.688Z,13864.00
2018-05-12T05:55:53.909Z,14268.00
2018-05-12T05:56:54.136Z,14656.00
2018-05-12T05:57:54.355Z,14912.00
2018-05-12T05:58:54.573Z,15136.00
2018-05-12T05:59:54.800Z,14752.00
2018-05-12T06:00:55.032Z,14688.00
2018-05-12T06:01:55.248Z,15360.00
2018-05-12T06:02:55.477Z,16224.00
2018-05-12T06:03:55.689Z,16608.00
2018-05-12T06:04:58.632Z,16192.00
2018-05-12T06:05:56.084Z,15936.00
2018-05-12T06:06:56.335Z,16480.00
2018-05-12T06:07:56.556Z,17536.00
2018-05-12T06:08:58.605Z,18208.00
2018-05-12T06:09:56.945Z,17984.00
2018-05-12T06:10:57.167Z,17280.00
2018-05-12T06:11:57.383Z,16960.00
2018-05-12T06:12:57.607Z,18016.00
2018-05-12T06:13:57.813Z,19264.00
2018-05-12T06:14:58.045Z,20032.00
2018-05-12T06:15:58.254Z,19648.00
2018-05-12T06:16:58.477Z,19168.00
2018-05-12T06:17:58.781Z,19136.00
2018-05-12T06:18:58.940Z,19616.00
2018-05-12T06:19:59.193Z,20128.00
2018-05-12T06:20:59.421Z,20224.00
2018-05-12T06:21:59.646Z,20576.00
2018-05-12T06:22:59.861Z,21152.00
2018-05-12T06:24:00.085Z,21664.00
2018-05-12T06:25:00.310Z,21760.00
2018-05-12T06:26:00.540Z,21440.00
2018-05-12T06:27:00.843Z,21408.00
2018-05-12T06:28:01.102Z,22176.00
2018-05-12T06:29:03.110Z,23328.00
2018-05-12T06:30:05.133Z,24224.00
2018-05-12T06:31:03.116Z,24576.00
2018-05-12T06:32:01.714Z,25056.00
2018-05-12T06:33:05.609Z,24928.00
2018-05-12T06:34:02.088Z,24416.00
2018-05-12T06:35:02.315Z,24096.00
2018-05-12T06:36:04.123Z,23744.00
2018-05-12T06:37:05.635Z,23616.00
2018-05-12T06:38:04.610Z,24448.00
2018-05-12T06:39:03.075Z,25696.00
2018-05-12T06:40:05.137Z,27360.00
2018-05-12T06:41:03.455Z,28480.00
2018-05-12T06:42:03.683Z,29472.00
2018-05-12T06:43:07.616Z,29472.00
2018-05-12T06:44:04.099Z,29248.00
2018-05-12T06:45:07.109Z,28608.00
2018-05-12T06:46:06.172Z,28256.00
2018-05-12T06:47:04.621Z,28384.00
2018-05-12T06:48:04.845Z,29344.00
2018-05-12T06:49:06.644Z,30400.00
2018-05-12T06:50:05.251Z,31296.00
2018-05-12T06:51:05.483Z,31872.00
2018-05-12T06:52:08.611Z,31616.00
2018-05-12T06:53:21.609Z,30976.00
2018-05-12T06:54:06.197Z,29856.00
2018-05-12T06:55:06.414Z,29664.00
2018-05-12T06:56:08.612Z,30528.00
2018-05-12T06:57:06.829Z,32768.00
2018-05-12T06:58:08.613Z,34848.00
2018-05-12T06:59:10.136Z,35488.00
2018-05-12T07:00:09.124Z,34560.00
2018-05-12T07:01:09.128Z,31744.00
2018-05-12T07:02:07.745Z,28960.00
2018-05-12T07:03:09.606Z,28000.00
2018-05-12T07:04:10.107Z,29632.00
2018-05-12T07:05:08.383Z,32704.00
2018-05-12T07:06:10.129Z,35584.00
2018-05-12T07:07:08.857Z,36768.00
2018-05-12T07:08:10.615Z,35904.00
2018-05-12T07:09:11.062Z,33760.00
2018-05-12T07:10:09.428Z,31872.00
2018-05-12T07:11:09.645Z,31264.00
2018-05-12T07:12:11.614Z,32224.00
2018-05-12T07:13:11.655Z,34144.00
2018-05-12T07:14:10.294Z,35936.00
2018-05-12T07:15:13.145Z,37216.00
2018-05-12T07:16:10.616Z,37856.00
2018-05-12T07:17:13.575Z,37312.00
2018-05-12T07:18:11.065Z,36736.00
2018-05-12T07:19:13.133Z,36000.00
2018-05-12T07:20:11.493Z,37056.00
2018-05-12T07:21:17.617Z,37216.00
2018-05-12T07:22:14.568Z,38944.00
2018-05-12T07:23:37.114Z,39072.00
2018-05-12T07:24:14.111Z,39744.00
2018-05-12T07:25:19.120Z,40320.00
2018-05-12T07:26:12.707Z,40256.00
2018-05-12T07:27:15.622Z,40096.00
2018-05-12T07:28:16.621Z,40864.00
2018-05-12T07:29:15.113Z,41760.00
2018-05-12T07:30:15.143Z,41952.00
2018-05-12T07:31:13.639Z,42976.00
2018-05-12T07:32:19.661Z,43072.00
2018-05-12T07:33:16.651Z,43232.00
2018-05-12T07:34:21.215Z,42624.00
2018-05-12T07:35:18.571Z,42208.00
2018-05-12T07:36:16.118Z,42592.00
2018-05-12T07:37:17.660Z,43488.00
2018-05-12T07:38:18.624Z,44160.00
2018-05-12T07:39:16.614Z,43968.00
2018-05-12T07:40:17.144Z,43808.00
2018-05-12T07:41:17.164Z,43648.00
2018-05-12T07:42:17.611Z,43456.00
2018-05-12T07:43:15.882Z,43648.00
2018-05-12T07:44:17.087Z,43168.00
2018-05-12T07:45:32.129Z,42752.00
2018-05-12T07:46:32.149Z,41984.00
2018-05-12T07:47:41.140Z,41472.00
2018-05-12T07:48:17.568Z,41952.00
2018-05-12T07:49:18.655Z,41952.00
2018-05-12T07:50:18.077Z,41184.00
2018-05-12T07:51:18.320Z,39616.00
2018-05-12T07:52:19.143Z,38048.00
2018-05-12T07:53:17.750Z,36736.00
2018-05-12T07:54:20.647Z,37408.00
2018-05-12T07:55:19.674Z,40512.00
2018-05-12T07:56:19.090Z,44128.00
2018-05-12T07:57:19.073Z,47008.00
2018-05-12T07:58:26.632Z,48512.00
2018-05-12T07:59:21.590Z,47904.00
2018-05-12T08:00:20.625Z,46880.00
2018-05-12T08:01:21.129Z,44864.00
2018-05-12T08:02:21.123Z,43968.00
2018-05-12T08:03:21.081Z,43904.00
2018-05-12T08:04:22.328Z,46176.00
2018-05-12T08:05:20.049Z,49088.00
2018-05-12T08:06:20.280Z,50816.00
2018-05-12T08:07:23.121Z,50624.00
2018-05-12T08:08:26.666Z,47936.00
2018-05-12T08:09:21.905Z,45856.00
2018-05-12T08:10:21.856Z,46624.00
2018-05-12T08:11:21.361Z,50144.00
2018-05-12T08:12:21.467Z,55584.00
2018-05-12T08:13:21.703Z,59520.00
2018-05-12T08:14:22.944Z,60768.00
2018-05-12T08:15:23.613Z,60320.00
2018-05-12T08:16:23.583Z,56512.00
2018-05-12T08:17:24.114Z,52256.00
2018-05-12T08:18:22.608Z,50016.00
2018-05-12T08:19:25.637Z,51040.00
2018-05-12T08:20:43.996Z,54464.00
2018-05-12T08:21:30.159Z,56704.00
2018-05-12T08:22:27.072Z,55680.00
2018-05-12T08:23:25.130Z,52512.00
2018-05-12T08:24:27.666Z,49504.00
2018-05-12T08:25:25.634Z,48640.00
2018-05-12T08:26:31.616Z,47616.00
2018-05-12T08:27:27.137Z,49888.00
2018-05-12T08:28:26.117Z,52672.00
2018-05-12T08:29:24.562Z,56256.00
2018-05-12T08:30:25.615Z,58048.00
2018-05-12T08:31:25.024Z,57152.00
2018-05-12T08:32:28.121Z,57024.00
2018-05-12T08:33:27.116Z,55200.00
2018-05-12T08:34:27.620Z,54304.00
2018-05-12T08:35:28.469Z,54496.00
2018-05-12T08:36:26.090Z,55008.00
2018-05-12T08:37:55.254Z,56416.00
2018-05-12T08:38:27.484Z,57568.00
2018-05-12T08:39:34.622Z,58656.00
2018-05-12T08:40:27.642Z,56576.00
2018-05-12T08:41:30.783Z,54624.00
2018-05-12T08:42:43.991Z,53184.00
2018-05-12T08:43:50.012Z,54976.00
2018-05-12T08:44:43.623Z,57632.00
2018-05-12T08:45:29.635Z,60352.00
2018-05-12T08:46:28.043Z,64608.00
2018-05-12T08:47:32.446Z,65536.00
2018-05-12T08:48:30.004Z,64416.00
2018-05-12T08:49:30.144Z,63392.00
2018-05-12T08:50:30.616Z,61184.00
2018-05-12T08:51:30.111Z,59904.00
2018-05-12T08:52:32.107Z,60896.00
2018-05-12T08:53:31.178Z,62176.00
2018-05-12T08:54:33.111Z,62848.00
2018-05-12T08:55:32.633Z,62272.00
2018-05-12T08:56:45.680Z,63200.00
2018-05-12T08:57:39.713Z,61536.00
2018-05-12T08:58:37.144Z,59712.00
2018-05-12T08:59:30.393Z,60352.00
2018-05-12T09:00:31.635Z,63456.00
2018-05-12T09:01:32.756Z,64480.00
2018-05-12T09:02:32.626Z,64416.00
2018-05-12T09:03:31.263Z,65856.00
2018-05-12T09:04:54.143Z,67616.00
2018-05-12T09:05:33.121Z,65824.00
2018-05-12T09:06:31.890Z,61600.00
2018-05-12T09:07:39.646Z,59712.00
2018-05-12T09:08:35.119Z,59168.00
2018-05-12T09:09:32.518Z,61536.00
2018-05-12T09:10:38.630Z,64160.00
2018-05-12T09:11:36.652Z,68160.00
2018-05-12T09:12:35.085Z,69440.00
2018-05-12T09:13:35.069Z,69280.00
2018-05-12T09:14:33.689Z,66432.00
2018-05-12T09:15:33.916Z,62880.00
2018-05-12T09:16:34.149Z,61280.00
2018-05-12T09:17:36.118Z,59936.00
2018-05-12T09:18:34.546Z,60736.00
2018-05-12T09:19:38.617Z,60704.00
2018-05-12T09:20:35.989Z,63456.00
2018-05-12T09:21:41.622Z,64928.00
2018-05-12T09:22:35.371Z,65056.00
2018-05-12T09:23:35.510Z,66144.00
2018-05-12T09:24:38.649Z,68064.00
2018-05-12T09:25:36.113Z,69120.00
2018-05-12T09:26:43.169Z,67968.00
2018-05-12T09:27:57.424Z,64000.00
2018-05-12T09:28:39.570Z,61856.00
2018-05-12T09:29:36.802Z,61536.00
2018-05-12T09:30:37.032Z,62240.00
2018-05-12T09:31:39.080Z,65024.00
2018-05-12T09:32:40.171Z,68032.00
2018-05-12T09:33:39.623Z,68864.00
2018-05-12T09:34:38.884Z,67296.00
2018-05-12T09:35:38.521Z,64512.00
2018-05-12T09:36:40.133Z,60864.00
2018-05-12T09:37:38.485Z,57344.00
2018-05-12T09:38:40.632Z,55584.00
2018-05-12T09:39:40.620Z,57632.00
2018-05-12T09:40:43.598Z,60672.00
2018-05-12T09:41:41.158Z,64224.00
2018-05-12T09:42:47.123Z,66112.00
2018-05-12T09:43:41.621Z,65504.00
2018-05-12T09:44:39.858Z,62368.00
2018-05-12T09:45:41.644Z,57216.00
2018-05-12T09:46:41.570Z,55488.00
2018-05-12T09:47:42.096Z,57056.00
2018-05-12T09:48:40.605Z,60992.00
2018-05-12T09:49:44.618Z,65344.00
2018-05-12T09:50:42.665Z,67264.00
2018-05-12T09:51:43.143Z,65728.00
2018-05-12T09:52:43.132Z,62752.00
2018-05-12T09:53:41.617Z,60288.00
2018-05-12T09:54:41.861Z,59264.00
2018-05-12T09:55:43.077Z,61184.00
2018-05-12T09:56:49.175Z,63040.00
2018-05-12T09:57:44.129Z,65088.00
2018-05-12T09:58:44.626Z,65920.00
2018-05-12T09:59:43.033Z,64608.00
2018-05-12T10:00:45.590Z,60928.00
2018-05-12T10:01:43.363Z,56864.00
2018-05-12T10:02:44.502Z,55712.00
2018-05-12T10:03:43.648Z,55872.00
2018-05-12T10:04:43.859Z,59328.00
2018-05-12T10:05:46.647Z,63968.00
2018-05-12T10:06:46.110Z,66848.00
2018-05-12T10:07:45.478Z,66176.00
2018-05-12T10:08:50.071Z,63616.00
2018-05-12T10:09:45.058Z,62176.00
2018-05-12T10:10:52.618Z,61536.00
2018-05-12T10:11:48.394Z,59744.00
2018-05-12T10:12:45.610Z,61472.00
2018-05-12T10:13:50.627Z,60672.00
2018-05-12T10:14:48.607Z,59680.00
2018-05-12T10:15:47.670Z,59168.00
2018-05-12T10:16:48.124Z,58368.00
2018-05-12T10:17:46.512Z,60320.00
2018-05-12T10:18:50.636Z,62368.00
2018-05-12T10:19:52.853Z,65184.00
2018-05-12T10:20:48.646Z,61248.00
2018-05-12T10:21:47.258Z,65472.00
2018-05-12T10:22:47.453Z,65536.00
2018-05-12T10:23:47.698Z,62272.00
2018-05-12T10:24:49.110Z,58400.00
2018-05-12T10:25:48.111Z,53952.00
2018-05-12T10:26:48.359Z,52224.00
2018-05-12T10:27:48.497Z,54432.00
2018-05-12T10:28:50.156Z,55520.00
2018-05-12T10:29:49.340Z,58208.00
2018-05-12T10:30:50.614Z,62464.00
2018-05-12T10:31:49.211Z,63360.00
2018-05-12T10:32:51.118Z,60480.00
2018-05-12T10:33:50.073Z,61664.00
2018-05-12T10:34:53.625Z,58816.00
2018-05-12T10:35:49.852Z,58112.00
2018-05-12T10:36:53.699Z,57184.00
2018-05-12T10:37:52.162Z,57952.00
2018-05-12T10:38:51.580Z,57120.00
2018-05-12T10:39:58.623Z,56416.00
2018-05-12T10:40:51.044Z,57664.00
2018-05-12T10:41:57.290Z,59904.00
2018-05-12T10:42:53.124Z,62048.00
2018-05-12T10:43:52.616Z,63616.00
2018-05-12T10:44:52.449Z,64416.00
2018-05-12T10:45:53.217Z,63776.00
2018-05-12T10:46:52.336Z,62784.00
2018-05-12T10:47:52.614Z,61152.00
2018-05-12T10:48:52.724Z,60128.00
2018-05-12T10:49:52.996Z,58432.00
2018-05-12T10:50:53.105Z,59232.00
2018-05-12T10:51:57.135Z,61504.00
2018-05-12T10:52:55.134Z,63168.00
2018-05-12T10:53:55.127Z,63776.00
2018-05-12T10:54:55.596Z,63136.00
2018-05-12T10:55:56.622Z,60768.00
2018-05-12T10:56:58.157Z,58112.00
2018-05-12T10:57:56.135Z,55744.00
2018-05-12T10:58:58.115Z,55904.00
2018-05-12T10:59:56.668Z,56160.00
2018-05-12T11:00:56.625Z,57664.00
2018-05-12T11:02:00.012Z,59552.00
2018-05-12T11:02:59.145Z,61440.00
2018-05-12T11:03:55.664Z,61824.00
2018-05-12T11:05:00.127Z,60256.00
2018-05-12T11:05:57.619Z,58624.00
2018-05-12T11:06:58.588Z,55840.00
2018-05-12T11:08:03.162Z,53344.00
2018-05-12T11:09:00.119Z,52448.00
2018-05-12T11:09:58.581Z,52576.00
2018-05-12T11:10:56.972Z,53408.00
2018-05-12T11:12:01.578Z,55520.00
2018-05-12T11:12:57.366Z,58592.00
2018-05-12T11:13:59.123Z,60416.00
2018-05-12T11:14:59.657Z,63008.00
2018-05-12T11:16:00.657Z,66912.00
2018-05-12T11:16:58.067Z,66816.00
2018-05-12T11:18:06.125Z,60896.00
2018-05-12T11:19:00.133Z,43264.00
2018-05-12T11:20:00.118Z,25312.00
2018-05-12T11:21:05.632Z,20672.00
2018-05-12T11:21:59.191Z,20576.00
2018-05-12T11:22:59.334Z,20480.00
2018-05-12T11:24:02.169Z,20672.00
2018-05-12T11:25:01.621Z,20640.00
2018-05-12T11:25:59.994Z,19872.00
2018-05-12T11:27:04.582Z,19456.00
2018-05-12T11:28:00.455Z,19072.00
2018-05-12T11:29:00.563Z,18656.00
2018-05-12T11:30:04.639Z,18560.00
2018-05-12T11:31:02.621Z,18784.00
2018-05-12T11:32:02.625Z,18880.00
2018-05-12T11:33:03.127Z,18976.00
2018-05-12T11:34:01.483Z,19008.00
2018-05-12T11:35:01.707Z,18528.00
2018-05-12T11:36:03.626Z,18304.00
2018-05-12T11:37:02.103Z,18336.00
2018-05-12T11:38:07.097Z,18432.00
2018-05-12T11:39:05.126Z,18432.00
2018-05-12T11:40:06.668Z,18464.00
2018-05-12T11:41:02.891Z,18624.00
2018-05-12T11:42:04.636Z,18944.00
2018-05-12T11:43:03.404Z,19136.00
2018-05-12T11:44:03.516Z,19392.00
2018-05-12T11:45:06.565Z,19808.00
2018-05-12T11:46:05.617Z,20320.00
2018-05-12T11:47:05.096Z,34272.00
2018-05-12T11:48:08.116Z,47584.00
2018-05-12T11:49:05.491Z,48832.00
2018-05-12T11:50:06.147Z,52160.00
2018-05-12T11:51:20.729Z,54624.00
2018-05-12T11:52:07.567Z,56224.00
2018-05-12T11:53:07.121Z,55552.00
2018-05-12T11:54:07.109Z,39712.00
2018-05-12T11:55:05.576Z,51616.00
2018-05-12T11:56:08.623Z,49184.00
2018-05-12T11:57:06.003Z,46464.00
2018-05-12T11:58:09.633Z,23264.00
2018-05-12T11:59:09.119Z,17184.00
2018-05-12T12:00:06.566Z,16356.00
2018-05-12T12:01:06.721Z,17824.00
2018-05-12T12:02:08.651Z,19616.00
2018-05-12T12:03:07.576Z,24512.00
2018-05-12T12:04:11.116Z,27520.00
2018-05-12T12:05:09.450Z,24800.00
2018-05-12T12:06:07.577Z,20064.00
2018-05-12T12:07:09.681Z,17728.00
2018-05-12T12:08:11.626Z,18432.00
2018-05-12T12:09:09.631Z,18592.00
2018-05-12T12:10:10.122Z,15804.00
2018-05-12T12:11:08.591Z,15060.00
2018-05-12T12:12:08.821Z,19936.00
2018-05-12T12:13:09.594Z,24448.00
2018-05-12T12:14:17.174Z,13560.00
2018-05-12T12:15:11.129Z,13416.00
2018-05-12T12:16:13.137Z,13776.00